Terminal Aerodrome Forecast
Issued by NWS Louisville, KY

Home | Current Version | Previous Version | Text Only | Print | Product List | Glossary On
Versions: 1 2 3 4 5 6 7 8 9 10 11 12 13 14 15 16 17 18 19 20 21
000
FTUS43 KLMK 261700
TAFSDF
TAF
KSDF 261738Z 2618/2724 30009KT P6SM BKN022 BKN060
     FM262300 28005KT P6SM BKN017
     FM270500 VRB03KT 5SM -SN BKN009
     FM271100 36005KT P6SM SCT015 BKN025
     FM271500 36005KT P6SM FEW025 FEW070=

USA.gov is the U.S. government's official web portal to all federal, state and local government web resources and services.